createdAt,value
2023-04-19T00:02:53.287Z,76.10
2023-04-19T00:08:02.784Z,75.40
2023-04-19T00:13:07.053Z,76.20
2023-04-19T00:18:09.241Z,75.90
2023-04-19T00:23:11.385Z,76.10
2023-04-19T00:28:14.907Z,76.30
2023-04-19T00:33:17.094Z,75.30
2023-04-19T00:38:19.208Z,75.60
2023-04-19T00:43:22.708Z,75.00
2023-04-19T00:48:25.843Z,74.90
2023-04-19T00:53:28.087Z,75.10
2023-04-19T00:58:32.725Z,75.30
2023-04-19T01:03:35.358Z,75.20
2023-04-19T01:08:37.727Z,74.70
2023-04-19T01:13:41.446Z,74.30
2023-04-19T01:18:43.628Z,74.30
2023-04-19T01:23:47.141Z,74.70
2023-04-19T01:28:49.286Z,75.00
2023-04-19T01:33:51.414Z,74.50
2023-04-19T01:38:55.590Z,74.10
2023-04-19T01:43:57.731Z,74.30
2023-04-19T01:48:59.932Z,73.80
2023-04-19T01:54:03.641Z,73.70
2023-04-19T01:59:05.767Z,74.20
2023-04-19T02:04:08.141Z,74.10
2023-04-19T02:09:11.733Z,73.60
2023-04-19T02:14:13.982Z,74.00
2023-04-19T02:19:16.120Z,73.60
2023-04-19T02:24:19.682Z,74.50
2023-04-19T02:29:22.209Z,73.40
2023-04-19T02:34:24.475Z,73.30
2023-04-19T02:39:28.090Z,73.20
2023-04-19T02:44:30.201Z,73.20
2023-04-19T02:49:32.344Z,73.30
2023-04-19T02:54:35.940Z,73.10
2023-04-19T02:59:38.040Z,73.00
2023-04-19T03:04:40.237Z,73.30
2023-04-19T03:09:43.784Z,73.00
2023-04-19T03:14:45.930Z,73.00
2023-04-19T03:19:48.144Z,73.30
2023-04-19T03:24:51.657Z,72.90
2023-04-19T03:29:55.250Z,72.90
2023-04-19T03:34:57.424Z,72.80
2023-04-19T03:40:00.889Z,72.70
2023-04-19T03:45:03.311Z,72.70
2023-04-19T03:50:06.378Z,72.70
2023-04-19T03:55:11.163Z,72.70
2023-04-19T04:00:14.405Z,72.80
2023-04-19T04:05:16.876Z,72.60
2023-04-19T04:10:20.519Z,72.70
2023-04-19T04:15:22.795Z,72.80
2023-04-19T04:20:24.897Z,72.80
2023-04-19T04:25:28.521Z,72.90
2023-04-19T04:30:30.711Z,72.90
2023-04-19T04:35:33.057Z,72.90
2023-04-19T04:40:36.612Z,72.90
2023-04-19T04:45:38.793Z,73.20
2023-04-19T04:50:41.105Z,73.40
2023-04-19T04:55:44.829Z,73.70
2023-04-19T05:00:46.936Z,74.30
2023-04-19T05:05:49.129Z,74.50
2023-04-19T05:10:52.902Z,74.20
2023-04-19T05:15:55.122Z,73.60
2023-04-19T05:20:57.729Z,73.00
2023-04-19T05:26:01.292Z,71.90
2023-04-19T05:31:03.568Z,70.70
2023-04-19T05:36:06.168Z,69.90
2023-04-19T05:41:09.858Z,68.60
2023-04-19T05:46:12.119Z,66.70
2023-04-19T05:51:14.457Z,64.70
2023-04-19T05:56:18.110Z,62.40
2023-04-19T06:01:20.350Z,60.30
2023-04-19T06:06:23.927Z,55.80
2023-04-19T06:11:38.357Z,55.30
2023-04-19T06:16:45.301Z,54.10
2023-04-19T06:21:47.455Z,51.60
2023-04-19T06:26:51.008Z,52.10
2023-04-19T06:31:53.227Z,51.40
2023-04-19T06:36:55.404Z,50.30
2023-04-19T06:41:58.988Z,52.40
2023-04-19T06:47:01.158Z,49.00
2023-04-19T06:52:05.245Z,49.50
2023-04-19T06:57:08.979Z,49.40
2023-04-19T07:02:11.157Z,48.90
2023-04-19T07:07:13.411Z,46.30
2023-04-19T07:12:17.139Z,44.60
2023-04-19T07:17:19.366Z,47.20
2023-04-19T07:22:21.520Z,43.90
2023-04-19T07:27:25.213Z,44.20
2023-04-19T07:32:27.542Z,44.70
2023-04-19T07:37:30.698Z,45.40
2023-04-19T07:42:34.396Z,45.30
2023-04-19T07:47:36.672Z,46.20
2023-04-19T07:52:38.946Z,44.20
2023-04-19T07:57:42.687Z,43.30
2023-04-19T08:02:45.164Z,43.20
2023-04-19T08:07:47.540Z,41.40
2023-04-19T08:17:59.756Z,40.90
2023-04-19T08:23:10.876Z,39.00
2023-04-19T08:28:23.269Z,38.50
2023-04-19T08:33:25.542Z,38.50
2023-04-19T08:38:27.689Z,40.50
2023-04-19T08:43:35.921Z,40.80
2023-04-19T08:48:40.007Z,39.00
2023-04-19T08:53:43.664Z,38.30
2023-04-19T09:04:04.773Z,38.60
2023-04-19T09:14:25.507Z,37.60
2023-04-19T09:19:45.230Z,36.20
2023-04-19T09:29:55.529Z,37.20
2023-04-19T09:34:59.135Z,35.10
2023-04-19T09:40:01.275Z,35.60
2023-04-19T09:50:22.596Z,36.20
2023-04-19T09:55:28.701Z,35.40
2023-04-19T10:00:41.943Z,34.80
2023-04-19T10:05:51.036Z,35.40
2023-04-19T10:10:53.750Z,32.70
2023-04-19T10:16:04.874Z,34.20
2023-04-19T10:21:20.604Z,35.50
2023-04-19T10:26:22.808Z,37.60
2023-04-19T10:31:27.367Z,38.30
2023-04-19T10:36:29.734Z,37.60
2023-04-19T10:41:58.955Z,37.40
2023-04-19T10:47:05.545Z,35.70
2023-04-19T10:52:27.456Z,37.40
2023-04-19T10:58:02.633Z,36.20
2023-04-19T11:03:38.119Z,35.30
2023-04-19T11:08:45.008Z,34.60
2023-04-19T11:13:48.387Z,35.70
2023-04-19T11:18:50.600Z,35.80
2023-04-19T11:24:09.476Z,36.50
2023-04-19T11:29:12.236Z,35.70
2023-04-19T11:34:14.665Z,33.00
2023-04-19T11:39:18.556Z,35.20
2023-04-19T11:44:20.901Z,36.00
2023-04-19T11:49:26.837Z,35.20
2023-04-19T11:54:30.431Z,34.00
2023-04-19T11:59:34.271Z,33.40
2023-04-19T12:04:36.797Z,33.50
2023-04-19T12:09:40.677Z,33.20
2023-04-19T12:14:52.737Z,33.40
2023-04-19T12:19:54.933Z,32.90
2023-04-19T12:24:58.437Z,33.80
2023-04-19T12:30:00.529Z,31.10
2023-04-19T12:35:02.648Z,32.80
2023-04-19T12:40:08.251Z,33.00
2023-04-19T12:45:12.579Z,31.00
2023-04-19T12:50:16.466Z,32.30
2023-04-19T12:55:20.211Z,32.70
2023-04-19T13:00:22.459Z,32.80
2023-04-19T13:05:24.737Z,34.30
2023-04-19T13:10:28.445Z,34.70
2023-04-19T13:15:30.721Z,33.80
2023-04-19T13:20:33.004Z,34.40
2023-04-19T13:25:36.645Z,32.90
2023-04-19T13:30:38.763Z,33.80
2023-04-19T13:35:40.913Z,33.10
2023-04-19T13:40:45.452Z,34.60
2023-04-19T13:45:47.674Z,34.60
2023-04-19T13:50:51.110Z,34.70
2023-04-19T13:55:55.811Z,34.80
2023-04-19T14:00:57.999Z,34.50
2023-04-19T14:06:00.444Z,33.50
2023-04-19T14:11:04.672Z,33.80
2023-04-19T14:16:07.672Z,34.30
2023-04-19T14:21:10.301Z,35.00
2023-04-19T14:26:14.641Z,35.10
2023-04-19T14:31:17.020Z,35.70
2023-04-19T14:36:19.394Z,34.40
2023-04-19T14:41:22.997Z,34.20
2023-04-19T14:46:25.366Z,34.00
2023-04-19T14:51:27.656Z,34.40
2023-04-19T14:56:31.261Z,34.90
2023-04-19T15:01:33.473Z,34.50
2023-04-19T15:06:35.733Z,35.20
2023-04-19T15:11:39.323Z,34.10
2023-04-19T15:16:41.434Z,35.20
2023-04-19T15:21:43.579Z,35.40
2023-04-19T15:26:47.223Z,35.40
2023-04-19T15:31:49.554Z,34.40
2023-04-19T15:36:51.809Z,34.00
2023-04-19T15:41:55.345Z,33.70
2023-04-19T15:46:57.759Z,34.50
2023-04-19T15:52:03.678Z,34.50
2023-04-19T15:57:07.700Z,35.40
2023-04-19T16:02:09.912Z,35.80
2023-04-19T16:07:15.977Z,36.10
2023-04-19T16:12:19.538Z,36.80
2023-04-19T16:17:27.289Z,36.10
2023-04-19T16:22:29.603Z,36.40
2023-04-19T16:27:33.100Z,36.50
2023-04-19T16:32:36.733Z,36.00
2023-04-19T16:37:38.860Z,36.60
2023-04-19T16:42:42.467Z,37.10
2023-04-19T16:47:46.028Z,37.20
2023-04-19T16:52:48.576Z,37.80
2023-04-19T16:57:52.102Z,37.00
2023-04-19T17:02:54.280Z,37.60
2023-04-19T17:07:58.085Z,37.10
2023-04-19T17:13:01.617Z,37.20
2023-04-19T17:18:03.925Z,37.10
2023-04-19T17:23:10.124Z,37.50
2023-04-19T17:28:13.576Z,38.20
2023-04-19T17:33:15.687Z,39.10
2023-04-19T17:38:17.852Z,37.80
2023-04-19T17:43:21.477Z,38.00
2023-04-19T17:48:23.814Z,37.60
2023-04-19T17:53:25.923Z,38.30
2023-04-19T17:58:29.436Z,38.60
2023-04-19T18:03:31.718Z,38.90
2023-04-19T18:08:34.081Z,39.00
2023-04-19T18:13:37.661Z,39.30
2023-04-19T18:18:39.883Z,39.00
2023-04-19T18:23:42.032Z,39.00
2023-04-19T18:28:45.618Z,39.10
2023-04-19T18:33:47.830Z,39.20
2023-04-19T18:38:50.349Z,39.50
2023-04-19T18:44:18.350Z,39.50
2023-04-19T18:49:16.642Z,39.70
2023-04-19T18:54:19.119Z,39.80
2023-04-19T18:59:22.724Z,39.90
2023-04-19T19:09:30.529Z,40.20
2023-04-19T19:14:34.180Z,40.30
2023-04-19T19:19:36.355Z,41.20
2023-04-19T19:24:38.468Z,40.60
2023-04-19T19:29:42.096Z,40.70
2023-04-19T19:34:54.874Z,40.80
2023-04-19T19:40:04.337Z,41.00
2023-04-19T19:45:10.494Z,41.10
2023-04-19T19:55:17.888Z,41.50
2023-04-19T20:05:27.500Z,42.00
2023-04-19T20:10:30.058Z,42.10
2023-04-19T20:15:34.250Z,42.30
2023-04-19T20:20:36.799Z,42.60
2023-04-19T20:25:38.938Z,42.90
2023-04-19T20:30:42.456Z,43.20
2023-04-19T20:35:44.628Z,43.60
2023-04-19T20:40:46.975Z,43.80
2023-04-19T20:45:50.708Z,44.10
2023-04-19T20:50:52.819Z,44.50
2023-04-19T20:55:55.150Z,44.60
2023-04-19T21:00:58.674Z,44.80
2023-04-19T21:06:00.884Z,45.00
2023-04-19T21:11:03.596Z,45.10
2023-04-19T21:16:07.645Z,45.20
2023-04-19T21:21:09.872Z,45.40
2023-04-19T21:26:11.996Z,45.50
2023-04-19T21:31:15.700Z,45.70
2023-04-19T21:36:17.855Z,46.10
2023-04-19T21:41:19.965Z,46.20
2023-04-19T21:46:23.510Z,46.60
2023-04-19T21:51:25.660Z,47.00
2023-04-19T21:56:27.958Z,47.10
2023-04-19T22:01:31.449Z,47.30
2023-04-19T22:06:33.639Z,47.50
2023-04-19T22:11:36.801Z,47.70
2023-04-19T22:16:40.329Z,47.80
2023-04-19T22:21:42.477Z,48.00
2023-04-19T22:26:44.570Z,48.10
2023-04-19T22:31:48.285Z,48.30
2023-04-19T22:36:50.440Z,48.70
2023-04-19T22:41:52.563Z,48.80
2023-04-19T22:46:56.135Z,48.80
2023-04-19T22:51:58.315Z,49.00
2023-04-19T22:57:00.473Z,49.10
2023-04-19T23:02:04.133Z,49.40
2023-04-19T23:07:06.392Z,49.70
2023-04-19T23:12:08.577Z,50.00
2023-04-19T23:17:12.268Z,50.10
2023-04-19T23:22:14.397Z,50.50
2023-04-19T23:27:16.544Z,50.50
2023-04-19T23:32:20.242Z,50.60
2023-04-19T23:37:22.438Z,50.70
2023-04-19T23:42:24.622Z,50.60
2023-04-19T23:47:28.208Z,50.70
2023-04-19T23:52:30.368Z,50.80
2023-04-19T23:57:34.210Z,50.80
